Time;durP1;ratioP1;P1;durP2;ratioP2;P2;SDS_P1;SDS_P2;PMS_P1;PMS_P2;Temp;Humidity;BMP_temperature;BMP_pressure;BME280_temperature;BME280_humidity;BME280_pressure;Samples;Min_cycle;Max_cycle;Signal;HPM_P1;HPM_P2
2022/04/18 00:01:48;;;;;;;3.05;1.83;;;5.30;85.40;;;;;;5052018;28;20025;-76
2022/04/18 00:04:14;;;;;;;4.05;2.13;;;5.30;84.90;;;;;;5053107;28;20371;-76
2022/04/18 00:06:40;;;;;;;3.33;2.15;;;5.40;84.50;;;;;;5054744;28;20033;-75
2022/04/18 00:09:05;;;;;;;2.13;1.92;;;5.40;85.00;;;;;;5053954;28;20021;-76
2022/04/18 00:11:32;;;;;;;3.60;2.08;;;5.40;85.30;;;;;;5056120;28;20025;-75
2022/04/18 00:13:58;;;;;;;3.03;1.85;;;5.40;86.00;;;;;;5055990;28;20028;-75
2022/04/18 00:16:24;;;;;;;3.40;1.90;;;5.30;87.00;;;;;;5055014;28;20116;-75
2022/04/18 00:18:50;;;;;;;3.38;2.00;;;5.20;88.10;;;;;;5055759;28;20032;-75
2022/04/18 00:21:15;;;;;;;4.85;2.10;;;5.20;89.10;;;;;;5053446;28;20089;-76
2022/04/18 00:23:43;;;;;;;4.25;2.45;;;5.20;90.00;;;;;;5055941;28;20065;-76
2022/04/18 00:26:09;;;;;;;3.97;2.58;;;5.10;90.20;;;;;;5054646;28;20039;-76
2022/04/18 00:28:34;;;;;;;3.30;1.83;;;5.10;90.30;;;;;;5055593;28;20017;-76
2022/04/18 00:31:00;;;;;;;3.58;2.20;;;5.10;90.40;;;;;;5055894;28;20370;-75
2022/04/18 00:33:26;;;;;;;3.63;2.38;;;5.00;90.70;;;;;;5053494;28;20116;-75
2022/04/18 00:35:52;;;;;;;2.30;1.77;;;5.00;91.20;;;;;;5054146;28;20021;-75
2022/04/18 00:38:18;;;;;;;3.13;1.73;;;5.00;91.30;;;;;;5053308;28;20098;-75
2022/04/18 00:40:44;;;;;;;3.60;2.17;;;4.90;91.80;;;;;;5037457;28;20104;-76
2022/04/18 00:43:09;;;;;;;4.53;1.85;;;4.80;92.10;;;;;;5054562;28;20113;-76
2022/04/18 00:45:35;;;;;;;3.08;1.92;;;4.80;92.60;;;;;;5054084;28;20025;-75
2022/04/18 00:48:01;;;;;;;2.70;1.63;;;4.70;92.90;;;;;;5055320;28;20032;-75
2022/04/18 00:50:29;;;;;;;2.83;2.05;;;4.70;93.50;;;;;;5054083;28;20490;-75
2022/04/18 00:52:55;;;;;;;5.60;2.42;;;4.70;94.20;;;;;;5055283;28;20029;-75
2022/04/18 00:55:23;;;;;;;3.88;2.30;;;4.60;94.70;;;;;;5053135;28;20029;-76
2022/04/18 00:57:51;;;;;;;2.97;1.83;;;4.60;95.20;;;;;;5053651;28;20037;-75
2022/04/18 01:00:16;;;;;;;2.97;2.17;;;4.60;95.80;;;;;;5054235;28;20032;-76
2022/04/18 01:02:42;;;;;;;5.50;2.05;;;4.50;96.20;;;;;;5054712;28;20029;-75
2022/04/18 01:05:08;;;;;;;4.20;2.42;;;4.40;96.80;;;;;;5054184;28;20125;-76
2022/04/18 01:07:34;;;;;;;3.40;1.80;;;4.40;97.40;;;;;;5054989;28;20056;-76
2022/04/18 01:10:02;;;;;;;2.45;1.70;;;4.40;97.90;;;;;;5055135;28;20032;-76
2022/04/18 01:12:28;;;;;;;3.70;2.20;;;4.30;98.30;;;;;;5054492;28;20025;-76
2022/04/18 01:14:54;;;;;;;2.85;1.73;;;4.30;98.60;;;;;;5054505;28;20036;-76
2022/04/18 01:17:19;;;;;;;4.15;2.10;;;4.30;98.60;;;;;;5054009;28;20033;-76
2022/04/18 01:19:45;;;;;;;2.80;2.28;;;4.30;98.70;;;;;;5054939;28;20024;-75
2022/04/18 01:22:12;;;;;;;4.25;1.90;;;4.30;98.90;;;;;;5053500;28;20103;-76
2022/04/18 01:30:07;;;;;;;4.18;2.17;;;4.10;99.70;;;;;;5054011;28;20028;-76
2022/04/18 01:32:33;;;;;;;2.85;1.83;;;4.10;99.90;;;;;;5054620;28;20033;-76
2022/04/18 01:34:59;;;;;;;2.28;1.73;;;4.00;99.90;;;;;;5053051;28;20398;-75
2022/04/18 01:37:25;;;;;;;4.13;2.40;;;4.00;99.90;;;;;;5053455;28;20044;-76
2022/04/18 01:39:51;;;;;;;2.80;1.90;;;3.90;99.90;;;;;;5053128;28;20078;-76
2022/04/18 01:42:16;;;;;;;4.55;2.30;;;3.90;99.90;;;;;;5053178;28;20033;-76
2022/04/18 01:44:42;;;;;;;2.25;1.88;;;3.90;99.90;;;;;;5054181;28;20453;-76
2022/04/18 01:47:08;;;;;;;3.95;2.13;;;3.80;99.90;;;;;;5052327;28;20386;-76
2022/04/18 01:49:34;;;;;;;3.15;2.25;;;3.80;99.90;;;;;;5052711;28;20021;-76
2022/04/18 01:51:59;;;;;;;3.85;2.30;;;3.80;99.90;;;;;;5054144;28;20094;-75
2022/04/18 01:54:25;;;;;;;2.83;2.13;;;3.70;99.90;;;;;;5052052;28;20033;-75
2022/04/18 01:56:51;;;;;;;4.55;2.30;;;3.70;99.90;;;;;;5053569;28;20037;-75
2022/04/18 01:59:16;;;;;;;5.15;2.78;;;3.70;99.90;;;;;;5053439;28;20112;-76
2022/04/18 02:01:42;;;;;;;3.83;2.60;;;3.60;99.90;;;;;;5054064;28;20079;-75
2022/04/18 02:04:08;;;;;;;3.33;2.47;;;3.60;99.90;;;;;;5053481;28;20250;-76
2022/04/18 02:06:34;;;;;;;4.18;2.40;;;3.50;99.90;;;;;;5053199;28;20461;-75
2022/04/18 02:09:00;;;;;;;5.72;2.58;;;3.50;99.90;;;;;;5054059;28;20481;-75
2022/04/18 02:11:26;;;;;;;3.92;2.50;;;3.50;99.90;;;;;;5052867;28;20028;-75
2022/04/18 02:13:52;;;;;;;3.17;2.25;;;3.50;99.90;;;;;;5052364;28;20032;-75
2022/04/18 02:16:18;;;;;;;3.45;2.70;;;3.40;99.90;;;;;;5052750;28;20041;-76
2022/04/18 02:18:45;;;;;;;2.95;2.53;;;3.40;99.90;;;;;;5053655;28;20025;-75
2022/04/18 02:21:12;;;;;;;3.92;2.40;;;3.40;99.90;;;;;;5052519;28;20032;-76
2022/04/18 02:23:41;;;;;;;3.58;2.40;;;3.30;99.90;;;;;;5053470;28;20035;-75
2022/04/18 02:26:07;;;;;;;4.13;2.38;;;3.30;99.90;;;;;;5051264;28;20032;-75
2022/04/18 02:28:33;;;;;;;3.58;2.42;;;3.30;99.90;;;;;;5052416;28;20529;-75
2022/04/18 02:30:59;;;;;;;4.35;2.58;;;3.30;99.90;;;;;;5053282;28;20067;-75
2022/04/18 02:33:24;;;;;;;3.22;2.28;;;3.30;99.90;;;;;;5052803;28;20017;-75
2022/04/18 02:35:51;;;;;;;3.70;2.45;;;3.30;99.90;;;;;;5052854;28;20053;-75
2022/04/18 02:38:17;;;;;;;3.53;2.85;;;3.30;99.90;;;;;;5052361;28;20075;-75
2022/04/18 02:40:43;;;;;;;3.15;2.45;;;3.20;99.90;;;;;;5052926;28;20029;-75
2022/04/18 02:43:09;;;;;;;3.63;2.55;;;3.20;99.90;;;;;;5052904;28;20120;-77
2022/04/18 02:45:35;;;;;;;6.38;2.42;;;3.20;99.90;;;;;;5052281;28;20124;-75
2022/04/18 02:48:01;;;;;;;5.75;3.17;;;3.20;99.90;;;;;;5053255;28;20493;-74
2022/04/18 02:50:27;;;;;;;3.25;2.70;;;3.20;99.90;;;;;;5051786;28;20442;-75
2022/04/18 02:52:53;;;;;;;4.07;2.70;;;3.20;99.90;;;;;;5052981;28;20095;-75
2022/04/18 02:55:20;;;;;;;3.38;2.65;;;3.10;99.90;;;;;;5052314;28;20029;-75
2022/04/18 02:57:45;;;;;;;3.55;2.83;;;3.10;99.90;;;;;;5051484;28;20033;-75
2022/04/18 03:00:12;;;;;;;7.00;2.70;;;3.00;99.90;;;;;;5051199;28;20023;-76
2022/04/18 03:02:38;;;;;;;6.00;3.08;;;3.00;99.90;;;;;;5052445;28;20029;-76
2022/04/18 03:05:06;;;;;;;5.18;3.00;;;3.00;99.90;;;;;;5053067;28;20036;-75
2022/04/18 03:07:32;;;;;;;5.32;2.72;;;2.90;99.90;;;;;;5051654;28;20696;-74
2022/04/18 03:09:58;;;;;;;6.15;2.92;;;2.90;99.90;;;;;;5051383;28;20029;-76
2022/04/18 03:12:23;;;;;;;4.90;2.85;;;2.90;99.90;;;;;;5051950;28;20048;-75
2022/04/18 03:14:49;;;;;;;4.82;3.13;;;2.90;99.90;;;;;;5052643;28;20108;-75
2022/04/18 03:17:16;;;;;;;4.18;2.65;;;2.90;99.90;;;;;;5052041;28;20036;-76
2022/04/18 03:19:41;;;;;;;5.13;2.92;;;2.90;99.90;;;;;;5052630;28;20032;-75
2022/04/18 03:22:07;;;;;;;5.75;3.15;;;2.80;99.90;;;;;;5052523;28;20498;-75
2022/04/18 03:24:34;;;;;;;4.65;2.83;;;2.80;99.90;;;;;;5051587;28;20025;-75
2022/04/18 03:27:00;;;;;;;5.15;3.42;;;2.80;99.90;;;;;;5052387;28;20029;-75
2022/04/18 03:29:26;;;;;;;5.05;3.00;;;2.80;99.90;;;;;;5051484;28;20036;-75
2022/04/18 03:31:54;;;;;;;3.60;2.72;;;2.80;99.90;;;;;;5052470;28;20029;-75
2022/04/18 03:34:19;;;;;;;4.70;3.20;;;2.80;99.90;;;;;;5051499;28;20032;-75
2022/04/18 03:42:13;;;;;;;3.95;2.45;;;2.70;99.90;;;;;;5052078;28;20083;-76
2022/04/18 03:44:44;;;;;;;3.63;2.67;;;2.60;99.90;;;;;;5051786;28;20033;-75
2022/04/18 03:47:14;;;;;;;3.40;2.78;;;2.60;99.90;;;;;;5051982;28;20530;-75
2022/04/18 03:49:40;;;;;;;3.90;3.00;;;2.60;99.90;;;;;;5050486;28;20033;-75
2022/04/18 03:52:07;;;;;;;4.22;2.95;;;2.50;99.90;;;;;;5051560;28;20071;-75
2022/04/18 03:54:34;;;;;;;5.10;2.75;;;2.50;99.90;;;;;;5050083;28;20497;-75
2022/04/18 03:57:03;;;;;;;5.03;3.03;;;2.40;99.90;;;;;;5051966;28;20029;-75
2022/04/18 03:59:29;;;;;;;6.57;2.72;;;2.30;99.90;;;;;;5051047;28;20029;-75
2022/04/18 04:01:55;;;;;;;6.55;4.03;;;2.30;99.90;;;;;;5051926;28;20111;-74
2022/04/18 04:04:21;;;;;;;4.25;3.03;;;2.30;99.90;;;;;;5051134;28;20029;-76
2022/04/18 04:06:47;;;;;;;6.00;3.50;;;2.30;99.90;;;;;;5051905;28;20029;-75
2022/04/18 04:09:12;;;;;;;3.53;2.97;;;2.30;99.90;;;;;;5051631;28;20116;-75
2022/04/18 04:11:38;;;;;;;5.40;3.30;;;2.20;99.90;;;;;;5049812;28;20127;-75
2022/04/18 04:14:04;;;;;;;4.43;2.53;;;2.20;99.90;;;;;;5051641;28;20075;-74
2022/04/18 04:16:29;;;;;;;5.05;2.85;;;2.10;99.90;;;;;;5051267;28;20039;-73
2022/04/18 04:18:55;;;;;;;6.32;3.53;;;2.10;99.90;;;;;;5051878;28;20390;-73
2022/04/18 04:21:21;;;;;;;9.35;3.95;;;2.10;99.90;;;;;;5049834;28;20029;-75
2022/04/18 04:23:46;;;;;;;6.15;3.13;;;2.10;99.90;;;;;;5052339;28;20075;-74
2022/04/18 04:26:12;;;;;;;5.07;3.28;;;2.10;99.90;;;;;;5050907;28;20449;-75
2022/04/18 04:28:38;;;;;;;5.53;3.50;;;2.20;99.90;;;;;;5049689;28;20574;-75
2022/04/18 04:31:03;;;;;;;4.65;3.05;;;2.20;99.90;;;;;;5051385;28;20394;-75
2022/04/18 04:33:32;;;;;;;5.38;3.10;;;2.20;99.90;;;;;;5049614;28;20025;-75
2022/04/18 04:35:59;;;;;;;5.75;3.08;;;2.30;99.90;;;;;;5051632;28;20053;-75
2022/04/18 04:38:25;;;;;;;4.32;2.90;;;2.30;99.90;;;;;;5050554;28;20033;-75
2022/04/18 04:40:53;;;;;;;6.45;3.20;;;2.30;99.90;;;;;;5051421;28;20437;-75
2022/04/18 04:43:27;;;;;;;10.82;3.10;;;2.30;99.90;;;;;;5049882;28;20154;-76
2022/04/18 04:45:56;;;;;;;5.93;3.20;;;2.30;99.90;;;;;;5051527;28;20024;-75
2022/04/18 04:48:23;;;;;;;4.10;2.72;;;2.30;99.90;;;;;;5050419;28;20021;-76
2022/04/18 04:50:49;;;;;;;7.88;3.22;;;2.40;99.90;;;;;;5053777;28;20041;-75
2022/04/18 04:53:15;;;;;;;3.72;2.70;;;2.40;99.90;;;;;;5054124;28;20082;-74
2022/04/18 04:55:41;;;;;;;4.00;2.53;;;2.40;99.90;;;;;;5054113;28;20486;-75
2022/04/18 04:58:10;;;;;;;5.50;3.22;;;2.50;99.90;;;;;;5055092;28;20029;-74
2022/04/18 05:00:39;;;;;;;5.45;3.05;;;2.50;99.90;;;;;;5054230;28;20029;-75
2022/04/18 05:03:07;;;;;;;5.35;2.97;;;2.50;99.90;;;;;;5055050;28;20351;-75
2022/04/18 05:05:32;;;;;;;10.98;3.80;;;2.50;99.90;;;;;;5054148;28;20028;-75
2022/04/18 05:07:58;;;;;;;6.00;3.60;;;2.60;99.90;;;;;;5054581;28;20402;-75
2022/04/18 05:10:24;;;;;;;7.93;3.90;;;2.60;99.90;;;;;;5053770;28;20356;-75
2022/04/18 05:12:50;;;;;;;6.68;3.65;;;2.60;99.90;;;;;;5053660;28;20047;-75
2022/04/18 05:15:16;;;;;;;7.82;4.55;;;2.70;99.90;;;;;;5054715;28;20344;-75
2022/04/18 05:17:41;;;;;;;5.70;3.90;;;2.80;99.90;;;;;;5053868;28;20037;-75
2022/04/18 05:20:09;;;;;;;6.40;3.72;;;2.90;99.90;;;;;;5053552;28;20029;-76
2022/04/18 05:22:35;;;;;;;7.50;3.78;;;2.90;99.90;;;;;;5053815;28;20033;-75
2022/04/18 05:25:01;;;;;;;7.70;4.38;;;3.00;99.90;;;;;;5054322;28;20108;-76
2022/04/18 05:27:26;;;;;;;6.13;3.97;;;3.10;99.90;;;;;;5052605;28;20064;-76
2022/04/18 05:29:52;;;;;;;9.23;4.40;;;3.30;99.90;;;;;;5054494;28;20460;-75
2022/04/18 05:32:18;;;;;;;8.25;4.43;;;3.70;99.90;;;;;;5054432;28;20096;-75
2022/04/18 05:34:44;;;;;;;9.00;4.90;;;3.70;99.90;;;;;;5053919;28;20031;-75
2022/04/18 05:37:09;;;;;;;6.30;4.18;;;3.90;99.90;;;;;;5054243;28;20033;-74
2022/04/18 05:39:35;;;;;;;6.68;4.03;;;4.00;99.90;;;;;;5052258;28;20056;-75
2022/04/18 05:42:01;;;;;;;7.13;4.20;;;4.00;99.90;;;;;;5052907;28;20024;-75
2022/04/18 05:44:27;;;;;;;9.25;4.18;;;4.20;99.90;;;;;;5053469;28;20033;-76
2022/04/18 05:46:53;;;;;;;6.40;4.25;;;4.20;99.90;;;;;;5054192;28;20470;-76
2022/04/18 05:49:18;;;;;;;7.97;4.45;;;4.20;99.90;;;;;;5054122;28;20029;-75
2022/04/18 05:51:44;;;;;;;8.30;4.38;;;4.30;99.90;;;;;;5053201;28;20049;-76
2022/04/18 05:54:10;;;;;;;8.63;4.28;;;4.30;99.90;;;;;;5054106;28;20025;-75
2022/04/18 05:56:36;;;;;;;5.78;4.00;;;4.40;99.90;;;;;;5053354;28;20032;-75
2022/04/18 05:59:02;;;;;;;7.22;4.28;;;4.50;99.90;;;;;;5053953;28;20519;-75
2022/04/18 06:01:31;;;;;;;8.18;4.03;;;4.60;99.90;;;;;;5053009;28;20037;-76
2022/04/18 06:03:57;;;;;;;8.32;3.80;;;4.70;99.90;;;;;;5053615;28;20053;-75
2022/04/18 06:06:23;;;;;;;5.93;4.10;;;4.80;99.90;;;;;;5052139;28;20060;-76
2022/04/18 06:08:48;;;;;;;7.03;4.60;;;4.80;99.90;;;;;;5052169;28;20033;-75
2022/04/18 06:11:14;;;;;;;8.60;4.75;;;4.90;99.90;;;;;;5054044;28;20151;-75
2022/04/18 06:13:40;;;;;;;11.85;4.78;;;5.10;99.90;;;;;;5052614;28;20078;-75
2022/04/18 06:16:06;;;;;;;7.63;4.25;;;5.20;99.90;;;;;;5053881;28;20455;-75
2022/04/18 06:18:33;;;;;;;8.15;4.35;;;5.30;99.90;;;;;;5052826;28;20021;-75
2022/04/18 06:20:59;;;;;;;8.48;4.28;;;5.50;99.90;;;;;;5053558;28;20072;-75
2022/04/18 06:23:24;;;;;;;6.63;4.72;;;5.60;99.90;;;;;;5053023;28;20061;-77
2022/04/18 06:25:50;;;;;;;7.40;4.57;;;5.60;99.90;;;;;;5052989;28;20379;-75
2022/04/18 06:28:16;;;;;;;8.00;4.43;;;5.70;99.90;;;;;;5052107;28;20485;-75
2022/04/18 06:30:42;;;;;;;10.07;4.53;;;5.70;99.90;;;;;;5052839;28;20115;-75
2022/04/18 06:33:12;;;;;;;12.32;4.65;;;5.80;99.90;;;;;;5053268;28;20032;-74
2022/04/18 06:35:38;;;;;;;7.73;4.60;;;5.90;99.90;;;;;;5052483;28;20029;-75
2022/04/18 06:38:04;;;;;;;6.38;4.45;;;6.10;99.90;;;;;;5051712;28;20432;-75
2022/04/18 06:40:30;;;;;;;7.32;3.60;;;6.30;99.90;;;;;;5051123;28;20501;-75
2022/04/18 06:42:56;;;;;;;6.72;3.45;;;6.40;97.90;;;;;;5053109;28;20029;-75
2022/04/18 06:45:21;;;;;;;6.57;3.80;;;6.60;96.00;;;;;;5053064;28;20371;-75
2022/04/18 06:47:47;;;;;;;5.53;3.80;;;6.80;95.90;;;;;;5050918;28;20465;-75
2022/04/18 06:50:13;;;;;;;5.53;3.72;;;7.10;95.90;;;;;;5052606;28;20102;-75
2022/04/18 06:52:40;;;;;;;6.82;4.20;;;7.20;94.20;;;;;;5050358;28;20057;-75
2022/04/18 06:55:07;;;;;;;6.45;4.18;;;7.50;92.90;;;;;;5051479;28;20029;-75
2022/04/18 06:57:35;;;;;;;5.85;3.85;;;7.70;92.30;;;;;;5051897;28;20044;-75
2022/04/18 07:00:02;;;;;;;7.43;4.00;;;7.80;92.60;;;;;;5053000;28;20021;-75
2022/04/18 07:02:28;;;;;;;7.65;4.45;;;8.00;92.80;;;;;;5052015;28;20050;-76
2022/04/18 07:04:54;;;;;;;9.18;5.07;;;8.10;93.30;;;;;;5034725;28;20044;-75
2022/04/18 07:07:19;;;;;;;7.95;4.60;;;8.20;93.00;;;;;;5052647;28;20033;-75
2022/04/18 07:09:46;;;;;;;6.70;3.88;;;8.30;91.80;;;;;;5050507;28;20661;-74
2022/04/18 07:12:11;;;;;;;7.57;4.43;;;8.30;92.60;;;;;;5052008;28;20029;-75
2022/04/18 07:14:38;;;;;;;7.07;4.40;;;8.50;92.00;;;;;;5050505;28;20029;-75
2022/04/18 07:17:06;;;;;;;7.18;4.22;;;8.50;90.90;;;;;;5052406;28;20040;-75
2022/04/18 07:19:33;;;;;;;6.78;3.90;;;8.70;90.80;;;;;;5051560;28;20025;-75
2022/04/18 07:21:58;;;;;;;6.53;3.97;;;8.80;90.10;;;;;;5052470;28;20041;-74
2022/04/18 07:24:24;;;;;;;5.47;3.70;;;8.80;89.10;;;;;;5052645;28;20036;-74
2022/04/18 07:26:50;;;;;;;5.00;3.35;;;8.80;88.70;;;;;;5051850;28;20131;-75
2022/04/18 07:29:16;;;;;;;5.88;3.95;;;8.90;87.20;;;;;;5052053;28;20413;-74
2022/04/18 07:31:42;;;;;;;8.95;3.90;;;9.10;86.30;;;;;;5050177;28;20359;-75
2022/04/18 07:34:08;;;;;;;9.25;4.50;;;9.20;86.30;;;;;;5052193;28;20040;-75
2022/04/18 07:36:33;;;;;;;7.38;3.80;;;9.20;85.30;;;;;;5051370;28;20061;-75
2022/04/18 07:38:59;;;;;;;5.78;3.92;;;9.40;83.60;;;;;;5052253;28;20086;-74
2022/04/18 07:41:29;;;;;;;5.10;3.90;;;9.50;82.90;;;;;;5052174;28;20047;-75
2022/04/18 07:43:56;;;;;;;5.80;3.55;;;9.50;84.20;;;;;;5051718;28;20067;-75
2022/04/18 07:46:22;;;;;;;4.35;3.47;;;9.60;82.20;;;;;;5052032;28;20037;-74
2022/04/18 07:48:50;;;;;;;10.32;4.13;;;9.70;78.90;;;;;;5050840;28;20040;-75
2022/04/18 07:51:32;;;;;;;7.55;4.55;;;9.90;79.90;;;;;;5050457;28;20075;-75
2022/04/18 07:53:58;;;;;;;6.97;4.18;;;9.90;79.40;;;;;;5052117;28;20041;-75
2022/04/18 07:56:24;;;;;;;6.68;3.88;;;10.00;78.90;;;;;;5051921;28;20033;-73
2022/04/18 07:58:50;;;;;;;5.60;3.65;;;10.10;77.70;;;;;;5049979;28;20469;-75
2022/04/18 08:01:17;;;;;;;7.38;4.75;;;10.20;77.50;;;;;;5050657;28;20028;-75
2022/04/18 08:03:43;;;;;;;4.95;3.97;;;10.30;76.30;;;;;;5051102;28;20029;-75
2022/04/18 08:06:09;;;;;;;8.27;4.00;;;10.30;76.40;;;;;;5050600;28;20067;-74
2022/04/18 08:08:35;;;;;;;5.88;3.60;;;10.50;74.90;;;;;;5050823;28;20382;-75
2022/04/18 08:11:02;;;;;;;5.93;4.13;;;10.50;74.60;;;;;;5051715;28;20025;-75
2022/04/18 08:13:28;;;;;;;5.18;3.55;;;10.50;74.30;;;;;;5050227;28;20116;-75
2022/04/18 08:15:54;;;;;;;5.55;4.00;;;10.60;74.10;;;;;;5050708;28;20123;-75
2022/04/18 08:18:20;;;;;;;6.18;3.40;;;10.80;73.80;;;;;;5051532;28;20486;-75
2022/04/18 08:20:46;;;;;;;4.88;3.80;;;10.90;73.80;;;;;;5050862;28;20032;-75
2022/04/18 08:23:12;;;;;;;6.55;3.45;;;11.10;73.30;;;;;;5050166;28;20037;-75
2022/04/18 08:25:38;;;;;;;6.45;4.10;;;11.20;71.50;;;;;;5052042;28;20094;-76
2022/04/18 08:28:03;;;;;;;7.20;3.72;;;11.20;71.20;;;;;;5055716;28;20025;-75
2022/04/18 08:30:29;;;;;;;6.80;3.97;;;11.30;70.40;;;;;;5055279;28;20468;-75
2022/04/18 08:32:55;;;;;;;6.93;4.05;;;11.40;69.60;;;;;;5055193;28;20026;-75
2022/04/18 08:35:21;;;;;;;8.93;4.10;;;11.40;70.00;;;;;;5055446;28;20370;-75
2022/04/18 08:37:47;;;;;;;4.68;3.10;;;11.40;69.70;;;;;;5054524;28;20454;-76
2022/04/18 08:40:14;;;;;;;7.65;3.53;;;11.50;69.60;;;;;;5055345;28;20063;-75
2022/04/18 08:42:41;;;;;;;8.02;3.47;;;11.70;69.60;;;;;;5054569;28;20033;-75
2022/04/18 08:45:10;;;;;;;4.75;3.25;;;11.90;69.60;;;;;;5055308;28;20039;-74
2022/04/18 08:53:10;;;;;;;5.35;3.33;;;12.10;67.30;;;;;;5055121;28;20537;-76
2022/04/18 08:55:36;;;;;;;6.43;3.70;;;12.10;67.40;;;;;;5055923;28;20043;-75
2022/04/18 08:58:03;;;;;;;4.70;3.47;;;12.30;67.60;;;;;;5053464;28;20040;-75
2022/04/18 09:00:28;;;;;;;4.47;3.17;;;12.30;67.80;;;;;;5055024;28;20517;-74
2022/04/18 09:02:54;;;;;;;6.32;3.58;;;12.40;67.00;;;;;;5052884;28;20031;-75
2022/04/18 09:05:21;;;;;;;5.47;3.83;;;12.50;66.20;;;;;;5054692;28;20060;-75
2022/04/18 09:08:00;;;;;;;4.07;3.17;;;12.60;64.80;;;;;;5054046;28;20025;-76
2022/04/18 09:10:26;;;;;;;3.83;3.33;;;12.70;64.50;;;;;;5054936;28;20386;-75
2022/04/18 09:12:53;;;;;;;5.60;3.55;;;12.70;64.60;;;;;;5054137;28;20136;-76
2022/04/18 09:15:46;;;;;;;5.55;3.25;;;12.80;65.40;;;;;;5054772;28;20031;-75
2022/04/18 09:18:17;;;;;;;4.05;3.03;;;13.00;64.30;;;;;;5053376;28;20128;-75
2022/04/18 09:20:48;;;;;;;5.18;3.35;;;13.30;63.30;;;;;;5053882;28;20091;-75
2022/04/18 09:23:22;;;;;;;4.93;3.50;;;13.40;62.20;;;;;;5054667;28;20127;-74
2022/04/18 09:26:01;;;;;;;5.03;3.78;;;13.40;62.70;;;;;;5053821;28;20025;-74
2022/04/18 09:28:32;;;;;;;5.88;3.58;;;13.40;61.80;;;;;;5054894;28;20482;-75
2022/04/18 09:31:08;;;;;;;4.78;3.28;;;13.40;61.30;;;;;;5053832;28;20036;-74
2022/04/18 09:33:43;;;;;;;5.65;3.08;;;13.60;61.20;;;;;;5054369;28;20025;-75
2022/04/18 09:36:17;;;;;;;3.60;2.88;;;13.70;60.60;;;;;;5053844;28;20033;-75
2022/04/18 09:38:45;;;;;;;5.65;2.75;;;13.80;60.10;;;;;;5053956;28;20025;-74
2022/04/18 09:41:13;;;;;;;3.70;3.30;;;14.00;59.00;;;;;;5054266;28;20029;-74
2022/04/18 09:43:49;;;;;;;6.45;3.47;;;14.10;58.20;;;;;;5053213;28;20382;-75
2022/04/18 09:46:15;;;;;;;4.53;3.17;;;14.10;58.70;;;;;;5054366;28;20072;-75
2022/04/18 09:48:42;;;;;;;3.85;2.97;;;14.10;58.40;;;;;;5053259;28;20025;-76
2022/04/18 09:51:10;;;;;;;6.05;3.67;;;14.20;58.90;;;;;;5053929;28;20049;-75
2022/04/18 09:53:39;;;;;;;3.50;2.80;;;14.30;58.30;;;;;;5052730;28;20229;-76
2022/04/18 09:56:05;;;;;;;5.25;3.60;;;14.40;56.90;;;;;;5053924;28;20378;-75
2022/04/18 09:58:32;;;;;;;5.80;3.00;;;14.60;56.50;;;;;;5054022;28;20025;-74
2022/04/18 10:01:02;;;;;;;5.05;2.92;;;14.90;55.10;;;;;;5053476;28;20175;-74
2022/04/18 10:03:27;;;;;;;5.50;3.17;;;15.00;54.70;;;;;;5053795;28;20025;-74
2022/04/18 10:05:55;;;;;;;6.50;2.67;;;15.00;55.10;;;;;;5052998;28;20029;-74
2022/04/18 10:08:21;;;;;;;5.63;3.35;;;15.00;55.00;;;;;;5053368;28;20025;-75
2022/04/18 10:10:47;;;;;;;6.25;3.35;;;15.00;54.80;;;;;;5053061;28;20342;-74
2022/04/18 10:13:13;;;;;;;4.43;2.97;;;15.00;54.60;;;;;;5053683;28;20033;-75
2022/04/18 10:15:39;;;;;;;4.72;3.30;;;15.10;54.60;;;;;;5053384;28;20027;-77
2022/04/18 10:18:07;;;;;;;8.48;3.70;;;15.10;54.10;;;;;;5052203;28;20512;-75
2022/04/18 10:20:49;;;;;;;5.70;3.85;;;15.20;53.80;;;;;;5053447;28;20112;-76
2022/04/18 10:23:51;;;;;;;4.15;2.72;;;15.30;53.80;;;;;;5052358;28;20370;-75
2022/04/18 10:26:54;;;;;;;4.93;3.33;;;15.40;54.20;;;;;;5052303;28;20075;-75
2022/04/18 10:29:39;;;;;;;6.20;3.40;;;15.50;55.20;;;;;;5053370;28;20110;-74
2022/04/18 10:32:07;;;;;;;5.40;3.05;;;15.70;54.50;;;;;;5052726;28;20493;-74
2022/04/18 10:34:34;;;;;;;4.45;3.05;;;15.70;52.40;;;;;;5053321;28;20029;-74
2022/04/18 10:37:03;;;;;;;6.50;3.88;;;15.60;52.60;;;;;;5050983;28;20593;-75
2022/04/18 10:39:34;;;;;;;4.88;3.33;;;15.40;52.60;;;;;;5052804;28;20028;-74
2022/04/18 10:42:37;;;;;;;6.43;2.90;;;15.50;53.30;;;;;;5052011;28;20128;-75
2022/04/18 10:45:06;;;;;;;4.63;3.45;;;15.60;53.40;;;;;;5052039;28;20098;-76
2022/04/18 10:47:53;;;;;;;6.55;3.30;;;15.70;52.50;;;;;;5052309;28;20032;-75
2022/04/18 10:50:20;;;;;;;4.88;2.90;;;16.00;52.50;;;;;;5052884;28;20037;-75
2022/04/18 10:53:05;;;;;;;4.88;3.22;;;16.20;51.30;;;;;;5052172;28;20048;-76
2022/04/18 10:55:31;;;;;;;4.50;3.30;;;16.40;51.30;;;;;;5052770;28;20032;-76
2022/04/18 10:58:17;;;;;;;5.20;2.90;;;16.50;50.80;;;;;;5051752;28;20029;-75
2022/04/18 11:00:54;;;;;;;4.43;2.97;;;16.70;50.30;;;;;;5050833;28;20025;-76
2022/04/18 11:03:35;;;;;;;5.35;2.90;;;16.80;49.50;;;;;;5052804;28;20028;-76
2022/04/18 11:06:16;;;;;;;3.63;2.58;;;16.90;50.00;;;;;;5051830;28;20648;-76
2022/04/18 11:09:07;;;;;;;6.20;2.80;;;17.00;49.70;;;;;;5052942;28;20032;-77
2022/04/18 11:11:42;;;;;;;4.13;2.75;;;17.10;49.80;;;;;;5053927;28;20060;-75
2022/04/18 11:14:28;;;;;;;4.88;2.53;;;17.30;48.90;;;;;;5055562;28;20017;-76
2022/04/18 11:16:57;;;;;;;2.80;2.47;;;17.40;48.10;;;;;;5054738;28;20422;-75
2022/04/18 11:19:29;;;;;;;4.50;3.17;;;17.40;49.10;;;;;;5052909;28;20100;-77
2022/04/18 11:21:55;;;;;;;4.22;3.10;;;17.30;48.40;;;;;;5050442;28;20041;-75
2022/04/18 11:24:40;;;;;;;2.97;2.40;;;17.50;50.10;;;;;;5052359;28;20024;-76
2022/04/18 11:27:10;;;;;;;4.10;2.85;;;17.60;49.20;;;;;;5051793;28;20033;-76
2022/04/18 11:29:37;;;;;;;4.03;2.63;;;17.70;49.40;;;;;;5051152;28;20390;-76
2022/04/18 11:32:04;;;;;;;3.95;2.88;;;17.90;47.90;;;;;;5051729;28;20044;-76
2022/04/18 11:34:31;;;;;;;5.03;2.92;;;18.10;48.50;;;;;;5052574;28;20043;-75
2022/04/18 11:36:59;;;;;;;2.83;2.40;;;18.10;53.20;;;;;;5051076;28;20466;-75
2022/04/18 11:39:50;;;;;;;3.20;2.80;;;18.10;48.00;;;;;;5052200;28;20021;-75
2022/04/18 11:42:17;;;;;;;4.18;3.10;;;18.00;46.70;;;;;;5051997;28;20116;-75
2022/04/18 11:44:45;;;;;;;3.58;3.10;;;18.10;47.10;;;;;;5051463;28;20025;-76
2022/04/18 11:47:16;;;;;;;3.15;2.47;;;18.20;46.30;;;;;;5052111;28;20060;-75
2022/04/18 11:49:45;;;;;;;4.88;3.05;;;18.20;46.20;;;;;;5051809;28;20024;-77
2022/04/18 11:52:23;;;;;;;4.38;3.08;;;18.50;45.40;;;;;;5052191;28;20183;-75
2022/04/18 11:55:00;;;;;;;4.45;2.80;;;18.30;45.00;;;;;;5049675;28;20040;-75
2022/04/18 11:57:27;;;;;;;5.00;2.92;;;18.30;45.30;;;;;;5052217;28;20057;-75
2022/04/18 11:59:54;;;;;;;3.05;2.72;;;18.40;46.10;;;;;;5054969;28;20035;-75
2022/04/18 12:08:00;;;;;;;3.65;2.65;;;18.90;44.90;;;;;;5057633;28;20043;-74
2022/04/18 12:10:28;;;;;;;4.38;3.13;;;19.20;44.70;;;;;;5059648;28;20049;-76
2022/04/18 12:12:54;;;;;;;5.53;3.60;;;19.40;43.60;;;;;;5056400;28;20449;-76
2022/04/18 12:15:22;;;;;;;3.88;3.17;;;19.50;43.00;;;;;;5058178;28;20051;-75
2022/04/18 12:17:48;;;;;;;6.18;3.00;;;19.60;43.40;;;;;;5057513;28;20089;-75
2022/04/18 12:20:27;;;;;;;3.38;3.08;;;19.50;43.30;;;;;;5058416;28;20097;-78
2022/04/18 12:22:58;;;;;;;4.10;2.70;;;19.50;43.30;;;;;;5057718;28;20020;-75
2022/04/18 12:25:26;;;;;;;4.97;3.00;;;19.90;58.10;;;;;;5058269;28;20416;-76
2022/04/18 12:27:53;;;;;;;3.15;2.80;;;19.90;44.40;;;;;;5057781;28;20033;-76
2022/04/18 12:30:19;;;;;;;15.05;3.25;;;20.10;42.70;;;;;;5058378;28;20197;-75
2022/04/18 12:32:47;;;;;;;3.70;2.63;;;20.10;42.90;;;;;;5057871;28;20374;-76
2022/04/18 12:35:36;;;;;;;4.75;2.90;;;20.10;43.00;;;;;;5057880;28;20047;-73
2022/04/18 12:38:04;;;;;;;2.50;2.22;;;20.10;43.70;;;;;;5057211;28;20036;-76
2022/04/18 12:40:54;;;;;;;3.40;2.60;;;20.10;44.00;;;;;;5056934;28;20359;-75
2022/04/18 12:43:20;;;;;;;3.30;2.70;;;20.30;42.00;;;;;;5058214;28;20486;-75
2022/04/18 12:45:50;;;;;;;3.85;2.72;;;20.40;42.10;;;;;;5058021;28;20259;-76
2022/04/18 12:48:24;;;;;;;6.68;2.97;;;20.50;42.40;;;;;;5058281;28;20052;-75
2022/04/18 12:50:51;;;;;;;4.18;2.72;;;20.40;41.70;;;;;;5057106;28;20049;-76
2022/04/18 12:53:17;;;;;;;2.90;2.30;;;20.60;41.20;;;;;;5058237;28;20021;-76
2022/04/18 12:55:43;;;;;;;3.40;2.25;;;20.70;41.40;;;;;;5058100;28;20021;-75
2022/04/18 12:58:21;;;;;;;4.03;2.30;;;21.00;41.60;;;;;;5057324;28;20077;-75
2022/04/18 13:00:50;;;;;;;4.40;2.92;;;21.30;40.80;;;;;;5057751;28;20025;-76
2022/04/18 13:03:20;;;;;;;3.80;2.45;;;21.10;42.00;;;;;;5057772;28;20497;-75
2022/04/18 13:05:48;;;;;;;4.20;2.67;;;21.00;41.50;;;;;;5058145;28;20116;-75
2022/04/18 13:08:16;;;;;;;3.20;2.42;;;20.90;40.60;;;;;;5057787;28;20106;-76
2022/04/18 13:10:43;;;;;;;5.05;2.42;;;20.90;41.20;;;;;;5055449;28;20025;-76
2022/04/18 13:13:19;;;;;;;3.00;2.55;;;20.80;41.10;;;;;;5053833;28;20016;-76
2022/04/18 13:15:46;;;;;;;2.58;2.33;;;20.90;41.80;;;;;;5054487;28;20071;-75
2022/04/18 13:18:21;;;;;;;3.28;1.92;;;20.70;40.80;;;;;;5054137;28;20064;-75
2022/04/18 13:20:47;;;;;;;3.30;2.55;;;20.70;41.60;;;;;;5055070;28;20029;-76